Time;durP1;ratioP1;P1;durP2;ratioP2;P2;SDS_P1;SDS_P2;PMS_P1;PMS_P2;Temp;Humidity;BMP_temperature;BMP_pressure;BME280_temperature;BME280_humidity;BME280_pressure;Samples;Min_cycle;Max_cycle;Signal;HPM_P1;HPM_P2
2021/01/30 00:03:20;;;;;;;11.57;9.10;;;;;;;2.54;63.95;99958.56;6102285;29;20244;-62
2021/01/30 00:06:47;;;;;;;10.80;9.80;;;;;;;2.51;64.42;99955.97;6104642;29;20331;-63
2021/01/30 00:10:10;;;;;;;9.90;8.93;;;;;;;2.65;64.02;99960.38;6103869;29;20228;-64
2021/01/30 00:13:30;;;;;;;11.77;10.10;;;;;;;2.56;64.40;99963.75;6105578;29;20251;-63
2021/01/30 00:16:51;;;;;;;10.13;8.87;;;;;;;2.72;63.92;99969.88;6109372;29;20232;-64
2021/01/30 00:20:14;;;;;;;8.63;7.83;;;;;;;2.67;63.72;99974.97;6109319;28;20232;-64
2021/01/30 00:23:35;;;;;;;11.30;9.20;;;;;;;2.92;63.34;99973.47;6104979;29;20240;-64
2021/01/30 00:26:59;;;;;;;9.97;8.97;;;;;;;2.77;64.14;99981.06;6106017;28;20235;-64
2021/01/30 00:30:22;;;;;;;11.27;10.07;;;;;;;2.96;62.97;99975.22;6107910;29;20263;-63
2021/01/30 00:33:42;;;;;;;9.37;8.47;;;;;;;2.58;64.74;99984.28;6106343;28;20227;-63
2021/01/30 00:37:09;;;;;;;10.47;9.47;;;;;;;2.84;64.86;99989.69;6111255;29;20325;-63
2021/01/30 00:40:30;;;;;;;10.83;9.73;;;;;;;2.70;64.88;99985.28;6108221;28;20529;-64
2021/01/30 00:43:51;;;;;;;10.47;9.17;;;;;;;2.81;65.06;99982.81;6107147;28;20235;-66
2021/01/30 00:47:13;;;;;;;9.43;8.43;;;;;;;2.96;64.51;99987.22;6127781;28;20238;-63
2021/01/30 00:50:33;;;;;;;10.83;9.60;;;;;;;2.80;65.09;99991.38;6128685;28;20232;-64
2021/01/30 00:53:54;;;;;;;12.83;10.83;;;;;;;2.92;65.13;100001.75;6132465;28;20219;-63
2021/01/30 00:57:15;;;;;;;12.83;9.63;;;;;;;2.82;64.77;100005.09;6126187;29;20523;-64
2021/01/30 01:00:36;;;;;;;10.80;9.47;;;;;;;2.84;64.96;100008.56;6121937;29;20243;-63
2021/01/30 01:04:02;;;;;;;10.17;8.97;;;;;;;2.90;65.66;100003.47;6130217;28;20258;-63
2021/01/30 01:07:22;;;;;;;9.47;8.50;;;;;;;2.87;65.43;100006.03;6128461;28;20610;-63
2021/01/30 01:10:42;;;;;;;10.17;8.63;;;;;;;2.83;65.93;100013.69;6122529;29;21066;-63
2021/01/30 01:14:04;;;;;;;10.30;8.83;;;;;;;2.93;65.12;100018.09;6130862;28;20576;-64
2021/01/30 01:17:25;;;;;;;9.73;8.83;;;;;;;2.92;65.30;100021.50;6123425;28;20232;-64
2021/01/30 01:20:46;;;;;;;10.77;9.70;;;;;;;2.92;66.26;100027.50;6124146;28;20236;-63
2021/01/30 01:24:07;;;;;;;9.73;8.30;;;;;;;3.16;65.50;100033.72;6133453;28;20331;-63
2021/01/30 01:27:27;;;;;;;13.10;9.00;;;;;;;3.07;65.15;100039.63;6119578;28;20240;-64
2021/01/30 01:30:48;;;;;;;10.23;9.23;;;;;;;3.14;65.63;100040.53;6128422;28;20485;-64
2021/01/30 01:34:09;;;;;;;10.53;9.57;;;;;;;2.85;66.77;100036.00;6120816;28;20239;-63
2021/01/30 01:37:29;;;;;;;9.03;8.23;;;;;;;3.03;66.74;100047.31;6129101;28;20231;-63
2021/01/30 01:40:49;;;;;;;9.17;8.30;;;;;;;2.76;67.50;100044.47;6125663;28;20653;-63
2021/01/30 01:44:09;;;;;;;11.63;9.53;;;;;;;2.78;67.51;100065.06;6131928;28;20296;-63
2021/01/30 01:47:37;;;;;;;9.43;8.33;;;;;;;2.99;66.98;100050.72;6123183;28;20242;-63
2021/01/30 01:50:59;;;;;;;10.43;9.03;;;;;;;3.06;66.99;100060.19;6134681;28;20228;-63
2021/01/30 01:54:23;;;;;;;10.17;9.17;;;;;;;2.94;67.37;100072.09;6123990;28;20519;-64
2021/01/30 01:57:47;;;;;;;10.27;9.27;;;;;;;2.98;67.05;100078.13;6132219;28;20235;-63
2021/01/30 02:01:09;;;;;;;9.47;8.53;;;;;;;2.86;68.27;100078.00;6123021;28;20235;-63
2021/01/30 02:04:29;;;;;;;10.47;9.40;;;;;;;2.98;67.18;100078.13;6129982;28;20602;-64
2021/01/30 02:07:55;;;;;;;11.03;9.87;;;;;;;2.86;68.01;100093.44;6120191;28;20228;-63
2021/01/30 02:11:15;;;;;;;9.47;8.57;;;;;;;2.87;67.60;100090.00;6130826;28;20231;-63
2021/01/30 02:14:40;;;;;;;10.30;9.20;;;;;;;2.85;67.35;100092.59;6129487;28;20589;-63
2021/01/30 02:18:11;;;;;;;10.30;9.40;;;;;;;2.99;66.71;100091.88;6121290;28;20231;-63
2021/01/30 02:22:16;;;;;;;9.60;8.70;;;;;;;3.20;66.38;100089.50;6121373;29;20228;-63
2021/01/30 02:26:05;;;;;;;9.23;8.37;;;;;;;3.02;66.57;100082.44;6120349;28;20258;-63
2021/01/30 02:30:04;;;;;;;10.30;9.23;;;;;;;2.90;67.11;100090.91;6125071;28;20224;-63
2021/01/30 02:33:56;;;;;;;10.33;9.43;;;;;;;3.02;67.02;100089.31;6100682;28;20649;-62
2021/01/30 02:37:21;;;;;;;9.77;8.87;;;;;;;3.04;66.79;100088.47;6125936;28;20223;-63
2021/01/30 02:40:47;;;;;;;11.23;10.23;;;;;;;3.01;67.41;100097.91;6123664;28;20232;-63
2021/01/30 02:44:12;;;;;;;10.20;8.70;;;;;;;3.15;67.27;100106.59;6124016;28;20391;-63
2021/01/30 02:47:39;;;;;;;9.90;8.90;;;;;;;2.88;67.25;100120.91;6117436;29;20228;-63
2021/01/30 02:51:03;;;;;;;11.00;9.87;;;;;;;2.85;67.11;100126.03;6122798;28;20310;-64
2021/01/30 02:54:24;;;;;;;17.03;11.50;;;;;;;3.11;66.17;100121.16;6124769;29;20235;-64
2021/01/30 02:57:46;;;;;;;11.57;10.47;;;;;;;2.99;66.67;100136.47;6125280;28;20227;-64
2021/01/30 03:01:06;;;;;;;11.87;10.67;;;;;;;3.06;66.13;100138.22;6121699;28;20238;-64
2021/01/30 03:04:29;;;;;;;10.30;9.30;;;;;;;3.04;66.39;100144.22;6123501;29;20714;-63
2021/01/30 03:08:06;;;;;;;11.20;10.10;;;;;;;2.93;66.84;100149.25;6123361;28;20817;-63
2021/01/30 03:11:34;;;;;;;15.00;12.13;;;;;;;3.01;65.90;100139.91;6120986;28;20227;-63
2021/01/30 03:14:57;;;;;;;11.80;10.40;;;;;;;3.08;65.95;100148.53;6117719;28;20335;-63
2021/01/30 03:18:23;;;;;;;11.27;10.17;;;;;;;3.11;65.41;100151.16;6117434;28;20223;-63
2021/01/30 03:21:46;;;;;;;14.17;12.80;;;;;;;3.02;66.17;100156.19;6121451;28;20240;-62
2021/01/30 03:25:08;;;;;;;12.13;11.03;;;;;;;3.09;65.35;100166.56;6122624;29;20240;-63
2021/01/30 03:32:06;;;;;;;11.73;10.57;;;;;;;3.02;65.31;100171.63;6071917;29;20241;-63
2021/01/30 03:35:27;;;;;;;11.80;10.50;;;;;;;2.84;66.61;100186.00;6081077;29;20229;-63
2021/01/30 03:38:48;;;;;;;11.63;10.43;;;;;;;2.88;66.12;100189.47;6074233;29;20229;-62
2021/01/30 03:42:09;;;;;;;12.07;10.77;;;;;;;2.88;66.07;100190.34;6084856;29;20237;-63
2021/01/30 03:45:30;;;;;;;13.00;11.70;;;;;;;2.99;65.01;100182.75;6075113;29;22242;-63
2021/01/30 03:48:51;;;;;;;14.57;11.93;;;;;;;2.77;65.35;100186.75;6080036;29;20355;-63
2021/01/30 03:52:11;;;;;;;12.27;11.07;;;;;;;2.99;64.27;100200.78;6085383;29;20322;-63
2021/01/30 03:55:32;;;;;;;10.67;9.57;;;;;;;2.99;63.85;100199.91;6089470;29;20237;-62
2021/01/30 03:58:52;;;;;;;10.90;9.30;;;;;;;3.00;63.30;100210.19;6085439;29;20229;-63
2021/01/30 04:02:13;;;;;;;11.10;10.03;;;;;;;2.92;63.34;100207.53;6068747;29;20228;-62
2021/01/30 04:05:34;;;;;;;9.97;8.97;;;;;;;2.95;63.06;100212.72;6089901;29;20595;-62
2021/01/30 04:08:54;;;;;;;12.93;11.20;;;;;;;2.90;63.64;100206.66;6084760;29;20229;-62
2021/01/30 04:12:15;;;;;;;14.00;11.43;;;;;;;3.02;62.77;100208.50;6084583;29;20220;-62
2021/01/30 04:15:37;;;;;;;12.17;10.87;;;;;;;3.04;62.26;100211.97;6082704;29;20245;-63
2021/01/30 04:18:58;;;;;;;12.63;11.43;;;;;;;2.85;63.80;100220.28;6079253;29;20228;-62
2021/01/30 04:22:19;;;;;;;12.07;10.87;;;;;;;2.81;63.64;100219.41;6091120;29;20610;-61
2021/01/30 04:25:40;;;;;;;12.97;10.93;;;;;;;2.92;63.06;100229.81;6084232;29;20518;-63
2021/01/30 04:29:01;;;;;;;13.30;11.60;;;;;;;2.94;62.93;100239.28;6090145;28;20237;-63
2021/01/30 04:32:22;;;;;;;13.70;10.90;;;;;;;2.95;62.89;100238.44;6146645;28;20620;-63
2021/01/30 04:35:42;;;;;;;16.47;12.80;;;;;;;3.02;63.60;100243.66;6161440;28;20243;-63
2021/01/30 04:39:05;;;;;;;12.80;11.50;;;;;;;3.10;63.16;100242.03;6157465;28;20238;-63
2021/01/30 04:42:34;;;;;;;14.27;12.10;;;;;;;2.89;63.70;100240.94;6158547;28;20617;-62
2021/01/30 04:46:04;;;;;;;13.73;12.27;;;;;;;2.99;63.11;100243.66;6138527;28;20249;-63
2021/01/30 04:49:34;;;;;;;14.80;13.30;;;;;;;3.07;63.07;100231.75;6151335;28;20226;-63
2021/01/30 04:53:02;;;;;;;14.13;12.73;;;;;;;2.45;65.26;100238.63;6143401;28;20502;-62
2021/01/30 04:56:37;;;;;;;15.27;13.60;;;;;;;2.61;64.88;100231.13;6158536;28;20219;-62
2021/01/30 05:00:39;;;;;;;14.43;12.90;;;;;;;2.66;65.08;100237.22;6150751;28;20230;-62
2021/01/30 05:04:12;;;;;;;19.87;14.83;;;;;;;2.68;65.03;100231.25;6144700;28;20234;-63
2021/01/30 05:07:39;;;;;;;14.00;12.53;;;;;;;2.77;64.32;100238.19;6148355;28;20231;-63
2021/01/30 05:11:04;;;;;;;17.73;14.77;;;;;;;2.80;64.19;100239.97;6152732;28;20231;-63
2021/01/30 05:14:32;;;;;;;21.37;15.73;;;;;;;2.92;64.96;100237.53;6137483;28;20235;-63
2021/01/30 05:17:58;;;;;;;15.87;14.27;;;;;;;3.00;64.71;100237.66;6139382;28;20617;-62
2021/01/30 05:21:23;;;;;;;19.43;15.80;;;;;;;2.88;64.20;100234.06;6160430;28;20235;-61
2021/01/30 05:24:44;;;;;;;18.83;16.07;;;;;;;2.82;64.68;100246.84;6146542;28;20247;-63
2021/01/30 05:28:15;;;;;;;18.67;16.27;;;;;;;2.65;64.41;100243.19;6147634;28;20337;-64
2021/01/30 05:31:46;;;;;;;20.67;16.47;;;;;;;2.82;64.43;100241.69;6135366;28;20620;-62
2021/01/30 05:35:12;;;;;;;23.33;18.47;;;;;;;2.82;64.28;100251.13;6145711;28;20608;-63
2021/01/30 05:38:47;;;;;;;17.57;15.43;;;;;;;2.61;64.66;100249.13;6147864;28;20417;-63
2021/01/30 05:42:14;;;;;;;19.23;17.20;;;;;;;2.72;64.46;100255.28;6151584;28;20238;-62
2021/01/30 05:45:42;;;;;;;21.37;16.90;;;;;;;2.54;64.63;100261.91;6146983;28;20637;-63
2021/01/30 05:49:10;;;;;;;17.73;15.60;;;;;;;2.27;65.98;100257.19;6139994;28;20231;-62
2021/01/30 05:52:32;;;;;;;19.03;17.00;;;;;;;2.36;65.46;100267.63;6160281;28;20474;-63
2021/01/30 05:55:54;;;;;;;21.10;17.53;;;;;;;2.60;65.04;100273.09;6147421;28;20243;-62
2021/01/30 05:59:21;;;;;;;21.47;18.27;;;;;;;2.68;64.85;100277.53;6154415;28;20234;-62
2021/01/30 06:02:42;;;;;;;21.07;17.40;;;;;;;2.74;64.82;100284.47;6140645;28;20231;-63
2021/01/30 06:06:10;;;;;;;25.70;17.17;;;;;;;2.86;63.72;100288.91;6144478;28;20227;-62
2021/01/30 06:09:36;;;;;;;19.03;16.90;;;;;;;2.52;64.46;100299.56;6139737;28;20376;-63
2021/01/30 06:13:11;;;;;;;19.23;15.97;;;;;;;2.73;64.13;100293.00;6158943;28;20337;-62
2021/01/30 06:16:40;;;;;;;19.17;16.27;;;;;;;2.75;64.61;100307.63;6147314;28;20298;-63
2021/01/30 06:20:14;;;;;;;16.13;13.87;;;;;;;2.84;63.90;100306.03;6151659;28;20242;-62
2021/01/30 06:23:37;;;;;;;17.47;14.63;;;;;;;2.55;64.61;100319.31;6152008;28;20223;-61
2021/01/30 06:27:05;;;;;;;16.73;14.83;;;;;;;2.39;64.75;100315.63;6142406;28;20246;-62
2021/01/30 06:30:32;;;;;;;15.40;13.80;;;;;;;2.41;64.57;100316.53;6142230;28;20254;-63
2021/01/30 06:33:56;;;;;;;21.67;16.80;;;;;;;2.51;64.61;100318.38;6136651;28;20504;-62
2021/01/30 06:37:34;;;;;;;17.20;14.37;;;;;;;2.53;63.72;100316.72;6145535;28;20223;-63
2021/01/30 06:40:57;;;;;;;15.87;14.20;;;;;;;2.24;64.06;100325.66;6144456;28;20262;-63
2021/01/30 06:44:23;;;;;;;15.63;13.97;;;;;;;2.00;64.91;100326.97;6143611;28;20513;-62
2021/01/30 06:47:47;;;;;;;16.30;14.40;;;;;;;2.00;65.06;100324.41;6142991;28;20227;-62
2021/01/30 06:51:28;;;;;;;15.40;13.27;;;;;;;2.03;64.19;100324.44;6141943;28;20223;-62
2021/01/30 06:55:08;;;;;;;16.47;13.53;;;;;;;1.86;64.94;100342.13;6143876;28;20227;-63
2021/01/30 06:58:38;;;;;;;14.07;12.57;;;;;;;1.93;64.67;100341.38;6137013;28;20627;-62
2021/01/30 07:01:59;;;;;;;15.13;12.73;;;;;;;1.96;64.97;100349.16;6127840;28;20234;-63
2021/01/30 07:05:28;;;;;;;15.03;13.43;;;;;;;1.95;64.47;100355.13;6137140;28;20613;-62
2021/01/30 07:09:03;;;;;;;14.87;12.70;;;;;;;1.91;65.11;100347.34;6135870;28;20235;-62
2021/01/30 07:12:30;;;;;;;16.90;13.00;;;;;;;2.02;64.50;100347.56;6136207;28;20235;-63
2021/01/30 07:16:03;;;;;;;13.67;12.27;;;;;;;1.86;64.46;100357.53;6132178;28;20515;-63
2021/01/30 07:19:38;;;;;;;13.43;12.07;;;;;;;1.89;64.02;100361.84;6139452;28;20227;-62
2021/01/30 07:23:06;;;;;;;14.17;11.33;;;;;;;1.76;64.61;100365.88;6136562;28;20632;-63
2021/01/30 07:26:32;;;;;;;13.07;11.60;;;;;;;1.89;64.17;100374.69;6141078;28;20231;-62
2021/01/30 07:29:58;;;;;;;13.13;10.80;;;;;;;1.82;63.32;100376.25;6125811;28;20248;-62
2021/01/30 07:33:25;;;;;;;14.00;10.70;;;;;;;1.89;63.15;100369.56;6138597;28;20231;-62
2021/01/30 07:36:52;;;;;;;13.70;11.47;;;;;;;2.00;63.18;100382.59;6134320;28;20231;-63
2021/01/30 07:40:16;;;;;;;13.07;11.77;;;;;;;1.95;62.83;100379.94;6143659;28;20247;-63
2021/01/30 07:43:42;;;;;;;11.40;10.30;;;;;;;2.09;62.98;100381.06;6136651;28;20243;-63
2021/01/30 07:47:12;;;;;;;12.17;10.70;;;;;;;2.21;62.07;100372.72;6132168;28;20231;-63
2021/01/30 07:50:37;;;;;;;12.13;10.87;;;;;;;2.36;61.79;100372.09;6134564;28;20238;-62
2021/01/30 07:53:58;;;;;;;13.17;10.77;;;;;;;2.34;61.66;100360.94;6121992;28;20239;-61
2021/01/30 07:57:57;;;;;;;11.60;10.37;;;;;;;2.54;61.48;100369.00;6129132;28;20235;-63
2021/01/30 08:01:35;;;;;;;11.10;9.83;;;;;;;2.77;60.52;100369.34;6128117;28;20423;-63
2021/01/30 08:05:15;;;;;;;12.90;11.50;;;;;;;2.83;60.48;100374.59;6119018;28;20334;-63
2021/01/30 08:08:40;;;;;;;13.03;10.47;;;;;;;3.07;60.08;100375.81;6124558;28;20291;-63
2021/01/30 08:12:12;;;;;;;11.90;10.00;;;;;;;3.08;59.11;100373.28;6128893;28;20231;-63
2021/01/30 08:15:36;;;;;;;10.47;9.50;;;;;;;3.08;58.58;100372.38;6127444;28;20235;-63
2021/01/30 08:19:01;;;;;;;9.90;8.90;;;;;;;3.19;58.41;100370.81;6128838;28;20227;-63
2021/01/30 08:22:30;;;;;;;11.17;10.00;;;;;;;3.28;58.47;100373.53;6127276;28;20276;-63
2021/01/30 08:25:56;;;;;;;11.67;10.57;;;;;;;3.51;57.92;100383.28;6126320;28;20239;-62
2021/01/30 08:29:19;;;;;;;10.43;9.37;;;;;;;3.56;57.12;100376.47;6127435;28;21799;-64
2021/01/30 08:32:53;;;;;;;11.07;9.97;;;;;;;3.71;56.60;100375.78;6124117;28;20605;-63
2021/01/30 08:36:33;;;;;;;9.67;8.77;;;;;;;8.57;46.87;100361.28;6127798;28;20234;-62
2021/01/30 08:40:12;;;;;;;8.53;7.73;;;;;;;12.45;37.43;100369.94;6128594;28;20638;-64
2021/01/30 08:43:40;;;;;;;7.57;6.77;;;;;;;13.33;33.34;100369.44;6129427;28;20307;-63
2021/01/30 08:47:24;;;;;;;8.83;8.03;;;;;;;14.41;31.93;100373.25;6128425;28;20238;-64
2021/01/30 08:50:47;;;;;;;8.00;7.27;;;;;;;14.93;30.91;100379.44;6129317;28;20231;-64
2021/01/30 08:54:30;;;;;;;7.50;6.90;;;;;;;17.22;26.32;100377.66;6132551;28;20219;-63
2021/01/30 08:57:51;;;;;;;7.17;6.57;;;;;;;18.09;25.20;100372.88;6129745;28;20239;-63
2021/01/30 09:01:43;;;;;;;6.78;6.22;;;;;;;18.12;25.28;100372.69;6132791;28;20636;-63
2021/01/30 09:05:06;;;;;;;6.72;6.22;;;;;;;19.83;23.24;100378.16;6129053;28;20573;-64
2021/01/30 09:08:41;;;;;;;6.90;6.25;;;;;;;20.32;22.03;100368.44;6133229;28;20242;-63
2021/01/30 09:12:02;;;;;;;6.25;5.75;;;;;;;20.86;20.73;100368.84;6128994;28;20504;-63
2021/01/30 09:15:55;;;;;;;6.15;5.60;;;;;;;22.48;19.85;100361.47;6130836;28;20239;-63
2021/01/30 09:19:31;;;;;;;5.85;5.45;;;;;;;20.87;20.36;100364.41;6127804;28;20228;-63
2021/01/30 09:23:09;;;;;;;5.82;5.32;;;;;;;22.46;18.36;100358.06;6122160;28;20454;-63
2021/01/30 09:26:48;;;;;;;6.10;5.60;;;;;;;22.14;18.73;100364.50;6122394;28;20249;-63
2021/01/30 09:30:27;;;;;;;5.63;5.13;;;;;;;23.27;18.26;100370.34;6125108;28;22197;-63
2021/01/30 09:34:01;;;;;;;6.05;5.55;;;;;;;23.23;17.29;100368.84;6122066;28;20238;-63
2021/01/30 09:37:31;;;;;;;5.53;5.13;;;;;;;22.67;19.28;100377.03;6112466;28;20647;-63
2021/01/30 09:41:05;;;;;;;5.78;5.38;;;;;;;24.32;17.50;100377.06;6135825;28;20545;-63
2021/01/30 09:44:27;;;;;;;6.40;5.90;;;;;;;23.26;17.32;100380.09;6125634;28;20983;-68
2021/01/30 09:47:50;;;;;;;6.68;6.07;;;;;;;25.06;16.62;100374.19;6136264;28;20239;-67
2021/01/30 09:51:12;;;;;;;8.50;7.80;;;;;;;26.71;15.42;100370.78;6138450;28;20231;-65
2021/01/30 09:54:34;;;;;;;8.63;7.82;;;;;;;25.46;15.71;100371.13;6138581;28;20657;-67
2021/01/30 09:57:59;;;;;;;20.80;17.85;;;;;;;26.83;15.35;100368.03;6141984;28;20270;-62
2021/01/30 10:01:25;;;;;;;16.08;14.85;;;;;;;26.56;14.95;100368.50;6136263;28;20303;-61
2021/01/30 10:04:46;;;;;;;23.52;21.85;;;;;;;26.30;15.29;100372.34;6140780;28;20227;-63
2021/01/30 10:08:15;;;;;;;6.28;5.78;;;;;;;26.79;14.60;100375.47;6137657;28;20235;-61
2021/01/30 10:11:38;;;;;;;5.63;5.20;;;;;;;26.32;14.34;100381.09;6135869;28;20222;-62
2021/01/30 10:14:59;;;;;;;5.55;5.18;;;;;;;26.42;14.14;100381.19;6140380;28;20554;-63
2021/01/30 10:18:22;;;;;;;5.75;5.35;;;;;;;27.14;13.69;100393.00;6138087;28;20243;-62
2021/01/30 10:21:42;;;;;;;5.60;5.20;;;;;;;27.15;14.03;100388.50;6133890;28;20310;-61
2021/01/30 10:25:07;;;;;;;5.32;4.93;;;;;;;27.13;13.17;100390.47;6145044;28;20227;-62
2021/01/30 10:28:40;;;;;;;6.85;6.25;;;;;;;26.68;13.67;100396.91;6141468;28;20255;-63
2021/01/30 10:32:04;;;;;;;6.65;6.15;;;;;;;26.90;14.10;100404.78;6135914;28;20231;-63
2021/01/30 10:35:30;;;;;;;5.38;4.97;;;;;;;27.49;13.67;100402.50;6139926;28;20609;-62
2021/01/30 10:38:54;;;;;;;6.30;5.75;;;;;;;27.82;13.57;100406.75;6135104;28;20542;-62
2021/01/30 10:42:19;;;;;;;6.05;5.55;;;;;;;27.85;13.08;100401.09;6135739;28;20325;-62
2021/01/30 10:45:44;;;;;;;6.60;6.10;;;;;;;27.31;12.94;100404.94;6137097;28;20275;-64
2021/01/30 10:49:07;;;;;;;6.68;6.13;;;;;;;27.72;13.10;100402.31;6139169;28;20286;-63
2021/01/30 10:52:28;;;;;;;6.95;6.45;;;;;;;26.95;13.78;100395.53;6134602;28;20375;-64
2021/01/30 10:55:49;;;;;;;6.95;5.78;;;;;;;28.24;12.45;100408.41;6140719;28;20348;-63
2021/01/30 10:59:21;;;;;;;6.78;6.18;;;;;;;28.33;12.99;100404.91;6138347;28;20384;-62
2021/01/30 11:02:44;;;;;;;5.95;5.45;;;;;;;28.80;12.79;100397.06;6135815;28;20731;-63
2021/01/30 11:06:14;;;;;;;6.70;6.22;;;;;;;26.88;13.59;100403.25;6132905;28;20533;-63
2021/01/30 11:09:36;;;;;;;6.70;6.20;;;;;;;27.19;12.43;100390.78;6135804;28;20234;-63
2021/01/30 11:13:11;;;;;;;6.88;6.38;;;;;;;27.02;13.39;100388.72;6139890;28;20420;-62
2021/01/30 11:16:39;;;;;;;5.28;4.88;;;;;;;27.89;12.69;100391.84;6132571;28;20248;-63
2021/01/30 11:20:01;;;;;;;6.03;5.63;;;;;;;29.30;11.87;100389.81;6139930;28;20258;-63
2021/01/30 11:23:41;;;;;;;6.88;6.38;;;;;;;28.52;11.90;100384.50;6134747;28;20467;-63
2021/01/30 11:27:03;;;;;;;7.40;6.90;;;;;;;28.78;11.97;100384.81;6139856;28;20516;-63
2021/01/30 11:30:28;;;;;;;6.82;6.40;;;;;;;28.88;11.83;100387.47;6126522;28;20235;-62
2021/01/30 11:33:52;;;;;;;8.05;7.35;;;;;;;30.17;11.18;100378.69;6136058;28;20298;-63
2021/01/30 11:37:14;;;;;;;6.28;5.78;;;;;;;29.36;10.88;100375.81;6128639;28;20235;-63
2021/01/30 11:40:34;;;;;;;6.15;5.75;;;;;;;29.96;11.17;100378.97;6139355;28;20896;-63
2021/01/30 11:43:55;;;;;;;5.97;5.57;;;;;;;28.62;12.20;100380.88;6143338;28;20326;-63
2021/01/30 11:47:15;;;;;;;6.03;5.63;;;;;;;23.94;15.74;100386.88;6125771;28;20250;-64
2021/01/30 11:50:36;;;;;;;7.20;6.60;;;;;;;24.84;15.12;100381.16;6138849;28;20231;-63
2021/01/30 11:53:57;;;;;;;6.38;5.80;;;;;;;24.51;15.51;100385.41;6127370;28;20242;-64
2021/01/30 11:57:18;;;;;;;8.45;7.78;;;;;;;20.12;19.93;100394.16;6140007;28;20829;-64
2021/01/30 12:00:38;;;;;;;5.80;5.35;;;;;;;16.89;22.95;100391.34;6131823;28;20600;-62
2021/01/30 12:03:58;;;;;;;8.90;8.07;;;;;;;17.03;23.43;100386.34;6140901;28;20243;-63
2021/01/30 12:07:19;;;;;;;6.10;5.65;;;;;;;18.01;22.91;100396.06;6129496;28;20239;-63
2021/01/30 12:10:40;;;;;;;5.80;5.30;;;;;;;19.62;20.02;100400.41;6127212;28;20223;-62
2021/01/30 12:14:01;;;;;;;5.00;4.60;;;;;;;20.98;18.88;100391.94;6130164;28;20231;-63
2021/01/30 12:17:37;;;;;;;4.22;3.92;;;;;;;24.26;15.51;100389.00;6135806;28;20322;-63
2021/01/30 12:20:58;;;;;;;6.05;5.53;;;;;;;19.43;19.36;100390.81;6141255;28;20231;-61
2021/01/30 12:24:18;;;;;;;4.78;4.38;;;;;;;16.87;23.04;100393.19;6137527;28;20699;-62
2021/01/30 12:27:43;;;;;;;4.25;3.95;;;;;;;15.09;25.17;100403.34;6140380;28;20223;-63
2021/01/30 12:31:05;;;;;;;13.20;3.97;;;;;;;13.66;26.75;100395.53;6140381;28;20337;-63
2021/01/30 12:34:26;;;;;;;3.87;3.57;;;;;;;13.20;27.64;100397.66;6140413;28;20377;-62
2021/01/30 12:37:46;;;;;;;5.93;5.37;;;;;;;12.68;29.09;100393.75;6146060;28;20258;-63
2021/01/30 12:41:08;;;;;;;4.13;3.73;;;;;;;12.57;28.73;100393.16;6138759;28;20520;-62
2021/01/30 12:44:29;;;;;;;4.47;4.07;;;;;;;12.56;28.90;100389.69;6119967;28;20589;-62
2021/01/30 12:47:50;;;;;;;4.40;4.07;;;;;;;11.98;30.71;100391.88;6129670;28;20760;-62
2021/01/30 12:51:10;;;;;;;5.27;4.77;;;;;;;11.98;30.56;100391.00;6134295;28;20235;-63
2021/01/30 12:54:31;;;;;;;4.83;4.43;;;;;;;11.68;30.77;100395.94;6147290;28;20248;-62
2021/01/30 12:57:51;;;;;;;5.67;5.07;;;;;;;10.96;31.00;100381.69;6143969;28;20239;-63
2021/01/30 13:01:12;;;;;;;5.73;5.23;;;;;;;11.03;32.22;100383.25;6143302;28;20504;-62
2021/01/30 13:04:33;;;;;;;5.50;5.00;;;;;;;11.73;32.46;100388.88;6147261;28;20334;-64
2021/01/30 13:07:53;;;;;;;6.17;5.67;;;;;;;13.09;29.69;100378.78;6146695;28;20231;-63
2021/01/30 13:11:14;;;;;;;6.70;6.10;;;;;;;13.13;29.08;100377.78;6147398;28;20325;-63
2021/01/30 13:14:34;;;;;;;6.13;5.63;;;;;;;13.46;28.51;100372.56;6147949;28;20235;-63
2021/01/30 13:17:56;;;;;;;6.23;5.63;;;;;;;15.01;26.26;100368.69;6145707;28;20616;-63
2021/01/30 13:21:16;;;;;;;6.57;5.97;;;;;;;15.53;25.72;100370.31;6139260;28;20227;-63
2021/01/30 13:24:37;;;;;;;7.37;6.67;;;;;;;14.81;26.52;100361.47;6146433;28;20227;-63
2021/01/30 13:27:58;;;;;;;6.50;5.90;;;;;;;14.98;26.39;100369.63;6142263;28;20239;-64
2021/01/30 13:31:18;;;;;;;6.27;5.77;;;;;;;14.27;26.47;100366.69;6156054;28;20242;-63
2021/01/30 13:34:39;;;;;;;5.20;4.77;;;;;;;12.23;29.18;100374.78;6147496;28;20227;-63
2021/01/30 13:38:00;;;;;;;4.20;3.90;;;;;;;12.51;28.48;100375.03;6144862;28;20231;-63
2021/01/30 13:41:21;;;;;;;3.23;3.03;;;;;;;11.74;29.63;100381.91;6146127;28;20496;-63
2021/01/30 13:44:41;;;;;;;4.17;3.87;;;;;;;10.30;31.96;100391.41;6141251;28;20227;-63
2021/01/30 13:48:02;;;;;;;5.30;4.83;;;;;;;11.04;32.24;100380.63;6144330;28;20235;-63
2021/01/30 13:51:23;;;;;;;5.50;5.00;;;;;;;13.05;29.35;100376.28;6146447;28;20235;-63
2021/01/30 13:54:44;;;;;;;4.87;4.47;;;;;;;12.84;28.92;100377.69;6144872;28;20539;-63
2021/01/30 13:58:04;;;;;;;4.17;3.87;;;;;;;10.91;31.70;100388.69;6142780;28;20258;-63
2021/01/30 14:01:25;;;;;;;5.30;4.90;;;;;;;10.05;33.32;100391.72;6144871;28;20591;-62
2021/01/30 14:04:46;;;;;;;5.60;5.10;;;;;;;9.28;34.48;100386.56;6141611;28;20271;-63
2021/01/30 14:08:07;;;;;;;4.43;4.10;;;;;;;9.00;34.98;100373.88;6135931;28;20515;-63
2021/01/30 14:11:27;;;;;;;5.10;4.63;;;;;;;8.47;35.96;100386.44;6134828;28;20254;-62
2021/01/30 14:14:48;;;;;;;5.17;4.67;;;;;;;8.24;36.35;100383.13;6130853;28;20644;-63
2021/01/30 14:18:08;;;;;;;4.77;4.37;;;;;;;8.32;36.83;100386.50;6134397;28;20250;-63
2021/01/30 14:21:29;;;;;;;6.37;5.87;;;;;;;8.24;37.24;100390.91;6141161;28;20230;-63
2021/01/30 14:24:50;;;;;;;5.43;5.03;;;;;;;8.07;37.96;100391.84;6135033;28;20271;-63
2021/01/30 14:28:11;;;;;;;5.70;5.20;;;;;;;7.96;38.15;100388.44;6128674;28;20814;-63
2021/01/30 14:31:31;;;;;;;6.03;5.43;;;;;;;7.88;38.32;100385.03;6134402;28;20346;-63
2021/01/30 14:34:52;;;;;;;6.43;5.73;;;;;;;7.94;38.54;100379.81;6128260;28;21297;-64
2021/01/30 14:38:12;;;;;;;6.23;5.70;;;;;;;7.88;38.92;100379.84;6130588;28;20609;-64
2021/01/30 14:41:34;;;;;;;6.87;6.37;;;;;;;7.50;39.62;100380.84;6137909;28;20549;-64
2021/01/30 14:44:54;;;;;;;7.27;6.67;;;;;;;7.37;40.24;100382.63;6118583;28;20239;-63
2021/01/30 14:48:15;;;;;;;7.27;6.60;;;;;;;7.43;40.34;100374.84;6130585;28;20227;-63
2021/01/30 14:51:35;;;;;;;7.53;6.87;;;;;;;7.07;41.08;100370.63;6129161;28;20235;-63
2021/01/30 14:54:56;;;;;;;6.63;6.03;;;;;;;7.03;40.94;100384.44;6128048;28;20231;-64
2021/01/30 14:58:17;;;;;;;6.57;5.97;;;;;;;7.11;41.15;100387.88;6133843;28;20258;-63
2021/01/30 15:01:38;;;;;;;7.53;6.87;;;;;;;6.95;41.30;100393.94;6132465;28;20265;-64
2021/01/30 15:04:58;;;;;;;6.73;6.13;;;;;;;7.01;40.81;100393.94;6132665;28;20239;-64
2021/01/30 15:08:19;;;;;;;6.93;6.23;;;;;;;6.93;40.99;100393.94;6142368;28;20235;-63
2021/01/30 15:11:39;;;;;;;6.87;6.17;;;;;;;6.71;41.60;100393.09;6134440;28;20764;-63
2021/01/30 15:15:00;;;;;;;6.37;5.77;;;;;;;6.66;41.90;100402.56;6135129;28;20266;-64
2021/01/30 15:18:21;;;;;;;6.53;5.93;;;;;;;6.55;42.21;100404.28;6130747;28;20235;-63
2021/01/30 15:21:41;;;;;;;6.67;6.07;;;;;;;6.55;42.27;100404.28;6139671;28;20234;-63
2021/01/30 15:25:02;;;;;;;7.43;6.73;;;;;;;6.40;42.26;100415.50;6141709;28;20623;-63
2021/01/30 15:28:23;;;;;;;6.37;5.83;;;;;;;6.28;42.77;100414.63;6137825;28;20231;-63
2021/01/30 15:31:44;;;;;;;6.30;5.70;;;;;;;6.36;42.93;100406.88;6141180;28;20318;-63
2021/01/30 15:35:06;;;;;;;7.17;6.50;;;;;;;6.05;43.45;100409.38;6140544;28;20240;-63
2021/01/30 15:38:27;;;;;;;7.50;6.80;;;;;;;6.03;43.70;100410.22;6135086;28;20322;-63
2021/01/30 15:41:47;;;;;;;6.83;5.90;;;;;;;6.04;43.53;100406.78;6131091;28;20223;-63
2021/01/30 15:45:10;;;;;;;6.67;6.07;;;;;;;5.89;43.56;100403.28;6129810;28;20699;-63
2021/01/30 15:48:31;;;;;;;6.37;5.60;;;;;;;5.82;43.53;100401.50;6107297;28;20614;-63
2021/01/30 15:51:52;;;;;;;8.23;6.90;;;;;;;5.64;44.14;100411.75;6132145;28;20227;-64
2021/01/30 15:55:17;;;;;;;6.60;5.97;;;;;;;5.63;44.29;100408.31;6136018;28;20267;-64
2021/01/30 15:58:37;;;;;;;6.27;5.77;;;;;;;5.60;44.45;100415.19;6131580;28;20258;-63